createdAt,value
2018-09-19T00:00:09.661Z,0
2018-09-19T00:00:50.415Z,0
2018-09-19T00:01:31.206Z,0
2018-09-19T00:02:11.978Z,0
2018-09-19T00:02:52.678Z,0
2018-09-19T00:03:33.443Z,0
2018-09-19T00:04:14.224Z,0
2018-09-19T00:04:55.034Z,0
2018-09-19T00:05:35.761Z,0
2018-09-19T00:06:16.517Z,0
2018-09-19T00:06:57.341Z,0
2018-09-19T00:07:38.150Z,0
2018-09-19T00:08:18.897Z,0
2018-09-19T00:08:59.705Z,0
2018-09-19T00:09:40.473Z,0
2018-09-19T00:10:21.199Z,0
2018-09-19T00:11:02.009Z,0
2018-09-19T00:11:42.871Z,0
2018-09-19T00:12:23.678Z,0
2018-09-19T00:13:04.396Z,0
2018-09-19T00:13:45.186Z,0
2018-09-19T00:14:25.996Z,0
2018-09-19T00:15:06.745Z,0
2018-09-19T00:15:47.495Z,0
2018-09-19T00:16:28.248Z,0
2018-09-19T00:17:09.080Z,0
2018-09-19T00:17:49.880Z,0
2018-09-19T00:18:30.711Z,0
2018-09-19T00:19:11.528Z,0
2018-09-19T00:19:52.308Z,0
2018-09-19T00:20:33.055Z,0
2018-09-19T00:21:13.751Z,0
2018-09-19T00:21:54.601Z,0
2018-09-19T00:22:35.329Z,0
2018-09-19T00:23:16.073Z,0
2018-09-19T00:23:56.876Z,0
2018-09-19T00:24:37.683Z,0
2018-09-19T00:25:18.473Z,0
2018-09-19T00:25:59.204Z,0
2018-09-19T00:26:39.997Z,0
2018-09-19T00:27:20.818Z,0
2018-09-19T00:28:01.496Z,0
2018-09-19T00:28:42.265Z,0
2018-09-19T00:29:23.006Z,0
2018-09-19T00:30:03.767Z,0
2018-09-19T00:30:44.566Z,0
2018-09-19T00:31:25.340Z,0
2018-09-19T00:32:06.053Z,0
2018-09-19T00:32:46.882Z,0
2018-09-19T00:33:27.675Z,0
2018-09-19T00:34:08.471Z,0
2018-09-19T00:34:49.196Z,0
2018-09-19T00:35:29.956Z,0
2018-09-19T00:36:10.688Z,0
2018-09-19T00:36:51.559Z,0
2018-09-19T00:37:32.380Z,0
2018-09-19T00:38:13.192Z,0
2018-09-19T00:38:53.988Z,0
2018-09-19T00:39:34.698Z,0
2018-09-19T00:40:15.503Z,0
2018-09-19T00:40:56.304Z,0
2018-09-19T00:41:37.086Z,0
2018-09-19T00:42:17.857Z,0
2018-09-19T00:42:58.560Z,0
2018-09-19T00:43:39.402Z,0
2018-09-19T00:44:20.242Z,0
2018-09-19T00:45:00.990Z,0
2018-09-19T00:45:41.709Z,0
2018-09-19T00:46:22.443Z,0
2018-09-19T00:47:03.196Z,0
2018-09-19T00:47:44.004Z,0
2018-09-19T00:48:24.793Z,0
2018-09-19T00:49:05.538Z,0
2018-09-19T00:49:46.341Z,0
2018-09-19T00:50:27.118Z,0
2018-09-19T00:51:07.972Z,0
2018-09-19T00:51:48.744Z,0
2018-09-19T00:52:29.476Z,0
2018-09-19T00:53:10.195Z,0
2018-09-19T00:53:50.911Z,0
2018-09-19T00:54:31.728Z,0
2018-09-19T00:55:12.520Z,0
2018-09-19T00:55:53.292Z,0
2018-09-19T00:56:34.060Z,0
2018-09-19T00:57:14.825Z,0
2018-09-19T00:57:55.684Z,0
2018-09-19T00:58:36.422Z,0
2018-09-19T00:59:17.182Z,0
2018-09-19T00:59:57.916Z,0
2018-09-19T01:00:38.704Z,0
2018-09-19T01:01:19.467Z,0
2018-09-19T01:02:00.224Z,0
2018-09-19T01:02:40.962Z,0
2018-09-19T01:03:21.837Z,0
2018-09-19T01:04:02.594Z,0
2018-09-19T01:04:43.332Z,0
2018-09-19T01:05:24.054Z,0
2018-09-19T01:06:04.924Z,0
2018-09-19T01:06:45.710Z,0
2018-09-19T01:07:26.456Z,0
2018-09-19T01:08:07.180Z,0
2018-09-19T01:08:47.935Z,0
2018-09-19T01:09:28.749Z,0
2018-09-19T01:10:09.521Z,0
2018-09-19T01:10:50.374Z,0
2018-09-19T01:11:31.162Z,0
2018-09-19T01:12:11.899Z,0
2018-09-19T01:12:52.723Z,0
2018-09-19T01:13:33.474Z,0
2018-09-19T01:14:14.343Z,0
2018-09-19T01:14:55.065Z,0
2018-09-19T01:15:35.812Z,0
2018-09-19T01:16:16.623Z,0
2018-09-19T01:16:57.439Z,0
2018-09-19T01:17:38.242Z,0
2018-09-19T01:18:18.991Z,0
2018-09-19T01:18:59.714Z,0
2018-09-19T01:19:40.559Z,0
2018-09-19T01:20:21.289Z,0
2018-09-19T01:21:02.011Z,0
2018-09-19T01:21:42.740Z,0
2018-09-19T01:22:23.510Z,0
2018-09-19T01:23:04.331Z,0
2018-09-19T01:23:45.088Z,0
2018-09-19T01:24:25.870Z,0
2018-09-19T01:25:06.696Z,0
2018-09-19T01:25:47.522Z,0
2018-09-19T01:26:28.342Z,0
2018-09-19T01:27:09.040Z,0
2018-09-19T01:27:49.752Z,0
2018-09-19T01:28:30.476Z,0
2018-09-19T01:29:11.259Z,0
2018-09-19T01:29:52.038Z,0
2018-09-19T01:30:32.917Z,0
2018-09-19T01:31:13.633Z,0
2018-09-19T01:31:54.343Z,0
2018-09-19T01:32:35.141Z,0
2018-09-19T01:33:15.880Z,0
2018-09-19T01:33:56.599Z,0
2018-09-19T01:34:37.308Z,0
2018-09-19T01:35:18.055Z,0
2018-09-19T01:35:58.901Z,0
2018-09-19T01:36:39.652Z,0
2018-09-19T01:37:20.385Z,0
2018-09-19T01:38:01.196Z,0
2018-09-19T01:38:41.996Z,0
2018-09-19T01:39:22.845Z,0
2018-09-19T01:40:03.615Z,0
2018-09-19T01:40:44.361Z,0
2018-09-19T01:41:25.199Z,0
2018-09-19T01:42:06.042Z,0
2018-09-19T01:42:46.714Z,0
2018-09-19T01:43:27.490Z,0
2018-09-19T01:44:08.249Z,0
2018-09-19T01:44:49.050Z,0
2018-09-19T01:45:29.882Z,0
2018-09-19T01:46:10.607Z,0
2018-09-19T01:46:51.371Z,0
2018-09-19T01:47:32.148Z,0
2018-09-19T01:48:12.892Z,0
2018-09-19T01:48:53.753Z,0
2018-09-19T01:49:34.569Z,0
2018-09-19T01:50:15.307Z,0
2018-09-19T01:50:56.114Z,0
2018-09-19T01:51:36.877Z,0
2018-09-19T01:52:17.709Z,0
2018-09-19T01:52:58.522Z,0
2018-09-19T01:53:39.275Z,0
2018-09-19T01:54:20.022Z,0
2018-09-19T01:55:00.792Z,0
2018-09-19T01:55:41.610Z,0
2018-09-19T01:56:22.436Z,0
2018-09-19T01:57:03.216Z,0
2018-09-19T01:57:43.984Z,0
2018-09-19T01:58:24.777Z,0
2018-09-19T01:59:05.527Z,0
2018-09-19T01:59:46.213Z,0
2018-09-19T02:00:26.931Z,0
2018-09-19T02:01:07.660Z,0
2018-09-19T02:01:48.467Z,0
2018-09-19T02:02:29.266Z,0
2018-09-19T02:03:10.046Z,0
2018-09-19T02:03:50.800Z,0
2018-09-19T02:04:31.509Z,0
2018-09-19T02:05:12.265Z,0
2018-09-19T02:05:53.024Z,0
2018-09-19T02:06:33.830Z,0
2018-09-19T02:07:14.594Z,0
2018-09-19T02:07:55.340Z,0
2018-09-19T02:08:36.169Z,0
2018-09-19T02:09:16.992Z,0
2018-09-19T02:09:57.790Z,0
2018-09-19T02:10:38.513Z,0
2018-09-19T02:11:19.253Z,0
2018-09-19T02:12:00.089Z,0
2018-09-19T02:12:40.806Z,0
2018-09-19T02:13:21.521Z,0
2018-09-19T02:14:02.235Z,0
2018-09-19T02:14:43.078Z,0
2018-09-19T02:15:23.874Z,0
2018-09-19T02:16:04.623Z,0
2018-09-19T02:16:45.397Z,0
2018-09-19T02:17:26.270Z,0
2018-09-19T02:18:07.089Z,0
2018-09-19T02:18:47.842Z,0
2018-09-19T02:19:28.585Z,0
2018-09-19T02:20:09.338Z,0
2018-09-19T02:20:50.084Z,0
2018-09-19T02:21:30.890Z,0
2018-09-19T02:22:11.675Z,0
2018-09-19T02:22:52.560Z,0
2018-09-19T02:23:33.296Z,0
2018-09-19T02:24:14.069Z,0
2018-09-19T02:24:54.884Z,0
2018-09-19T02:25:35.683Z,0
2018-09-19T02:26:16.401Z,0
2018-09-19T02:26:57.146Z,0
2018-09-19T02:27:37.944Z,0
2018-09-19T02:28:18.822Z,0
2018-09-19T02:28:59.613Z,0
2018-09-19T02:29:40.433Z,0
2018-09-19T02:30:21.233Z,0
2018-09-19T02:31:01.986Z,0
2018-09-19T02:31:42.696Z,0
2018-09-19T02:32:23.501Z,0
2018-09-19T02:33:04.255Z,0
2018-09-19T02:33:44.971Z,0
2018-09-19T02:34:25.743Z,0
2018-09-19T02:35:06.540Z,0
2018-09-19T02:35:47.391Z,0
2018-09-19T02:36:28.121Z,0
2018-09-19T02:37:08.916Z,0
2018-09-19T02:37:49.660Z,0
2018-09-19T02:38:30.468Z,0
2018-09-19T02:39:11.315Z,0
2018-09-19T02:39:52.127Z,0
2018-09-19T02:40:32.938Z,0
2018-09-19T02:41:13.649Z,0
2018-09-19T02:41:54.419Z,0
2018-09-19T02:42:35.227Z,0
2018-09-19T02:43:15.984Z,0
2018-09-19T02:43:56.724Z,0
2018-09-19T02:44:37.494Z,0
2018-09-19T02:45:18.245Z,0
2018-09-19T02:45:59.043Z,0
2018-09-19T02:46:39.777Z,0
2018-09-19T02:47:20.534Z,0
2018-09-19T02:48:01.400Z,0
2018-09-19T02:48:42.268Z,0
2018-09-19T02:49:23.049Z,0
2018-09-19T02:50:03.775Z,0
2018-09-19T02:50:44.630Z,0
2018-09-19T02:51:25.446Z,0
2018-09-19T02:52:06.242Z,0
2018-09-19T02:52:46.996Z,0
2018-09-19T02:53:27.746Z,0
2018-09-19T02:54:08.550Z,0
2018-09-19T02:54:49.307Z,0
2018-09-19T02:55:30.134Z,0
2018-09-19T02:56:10.874Z,0
2018-09-19T02:56:51.583Z,0
2018-09-19T02:57:32.312Z,0
2018-09-19T02:58:13.037Z,0
2018-09-19T02:58:53.891Z,0
2018-09-19T02:59:34.576Z,0
2018-09-19T03:00:15.334Z,0
2018-09-19T03:00:56.198Z,0
2018-09-19T03:01:37.018Z,0
2018-09-19T03:02:17.845Z,0
2018-09-19T03:02:58.582Z,0
2018-09-19T03:03:39.281Z,0
2018-09-19T03:04:20.029Z,0
2018-09-19T03:05:00.875Z,0
2018-09-19T03:05:41.624Z,0
2018-09-19T03:06:22.463Z,0
2018-09-19T03:07:03.190Z,0
2018-09-19T03:07:43.946Z,0
2018-09-19T03:08:24.792Z,0
2018-09-19T03:09:05.497Z,0
2018-09-19T03:09:46.241Z,0
2018-09-19T03:10:26.959Z,0
2018-09-19T03:11:07.745Z,0
2018-09-19T03:11:48.547Z,0
2018-09-19T03:12:29.341Z,0
2018-09-19T03:13:10.213Z,0
2018-09-19T03:13:50.957Z,0
2018-09-19T03:14:31.712Z,0
2018-09-19T03:15:12.487Z,0
2018-09-19T03:15:53.344Z,0
2018-09-19T03:16:34.118Z,0
2018-09-19T03:17:14.945Z,0
2018-09-19T03:17:55.667Z,0
2018-09-19T03:18:36.535Z,0
2018-09-19T03:19:17.397Z,0
2018-09-19T03:19:58.161Z,0
2018-09-19T03:20:38.892Z,0
2018-09-19T03:21:19.704Z,0
2018-09-19T03:22:00.447Z,0
2018-09-19T03:22:41.219Z,0
2018-09-19T03:23:21.978Z,0
2018-09-19T03:24:02.735Z,0
2018-09-19T03:24:43.573Z,0
2018-09-19T03:25:24.282Z,0
2018-09-19T03:26:05.028Z,0
2018-09-19T03:26:45.893Z,0
2018-09-19T03:27:26.665Z,0
2018-09-19T03:28:07.499Z,0
2018-09-19T03:28:48.242Z,0
2018-09-19T03:29:28.974Z,0
2018-09-19T03:30:09.752Z,0
2018-09-19T03:30:50.516Z,0
2018-09-19T03:31:31.363Z,0
2018-09-19T03:32:12.221Z,0
2018-09-19T03:32:53.063Z,0
2018-09-19T03:33:33.786Z,0
2018-09-19T03:34:14.594Z,0
2018-09-19T03:34:55.401Z,0
2018-09-19T03:35:36.286Z,0
2018-09-19T03:36:16.849Z,0
2018-09-19T03:36:57.556Z,0
2018-09-19T03:37:38.383Z,0
2018-09-19T03:38:19.201Z,0
2018-09-19T03:38:59.977Z,0
2018-09-19T03:39:40.749Z,0
2018-09-19T03:40:21.540Z,0
2018-09-19T03:41:02.378Z,0
2018-09-19T03:41:43.172Z,0
2018-09-19T03:42:23.933Z,0
2018-09-19T03:43:04.742Z,0
2018-09-19T03:43:45.580Z,0
2018-09-19T03:44:26.400Z,0
2018-09-19T03:45:07.185Z,0
2018-09-19T03:45:47.925Z,0
2018-09-19T03:46:28.733Z,0
2018-09-19T03:47:09.574Z,0
2018-09-19T03:47:50.460Z,0
2018-09-19T03:48:31.196Z,0
2018-09-19T03:49:11.913Z,0
2018-09-19T03:49:52.682Z,0
2018-09-19T03:50:33.463Z,0
2018-09-19T03:51:14.295Z,0
2018-09-19T03:51:55.038Z,0
2018-09-19T03:52:35.813Z,0
2018-09-19T03:53:16.665Z,0
2018-09-19T03:53:57.471Z,0
2018-09-19T03:54:38.303Z,0
2018-09-19T03:55:19.018Z,0
2018-09-19T03:55:59.807Z,0
2018-09-19T03:56:40.595Z,0
2018-09-19T03:57:21.360Z,0
2018-09-19T03:58:02.157Z,0
2018-09-19T03:58:42.891Z,0
2018-09-19T03:59:23.674Z,0
2018-09-19T04:00:04.497Z,0
2018-09-19T04:00:45.265Z,0
2018-09-19T04:01:26.069Z,0
2018-09-19T04:02:06.917Z,0
2018-09-19T04:02:47.775Z,0
2018-09-19T04:03:28.550Z,0
2018-09-19T04:04:09.296Z,0
2018-09-19T04:04:50.018Z,0
2018-09-19T04:05:30.789Z,0
2018-09-19T04:06:11.601Z,0
2018-09-19T04:06:52.431Z,0
2018-09-19T04:07:33.219Z,0
2018-09-19T04:08:13.934Z,0
2018-09-19T04:08:54.696Z,0
2018-09-19T04:09:35.547Z,0
2018-09-19T04:10:16.303Z,0
2018-09-19T04:10:57.001Z,0
2018-09-19T04:11:37.730Z,0
2018-09-19T04:12:18.487Z,0
2018-09-19T04:12:59.326Z,0
2018-09-19T04:13:40.117Z,0
2018-09-19T04:14:20.955Z,0
2018-09-19T04:15:01.657Z,4
2018-09-19T04:15:42.430Z,4
2018-09-19T04:16:23.237Z,4
2018-09-19T04:17:04.076Z,4
2018-09-19T04:17:44.824Z,4
2018-09-19T04:18:25.559Z,4
2018-09-19T04:19:06.378Z,4
2018-09-19T04:19:47.205Z,4
2018-09-19T04:20:28.064Z,4
2018-09-19T04:21:08.763Z,4
2018-09-19T04:21:49.507Z,4
2018-09-19T04:22:30.289Z,4
2018-09-19T04:23:11.115Z,4
2018-09-19T04:23:51.893Z,4
2018-09-19T04:24:32.666Z,4
2018-09-19T04:25:13.453Z,4
2018-09-19T04:25:54.152Z,4
2018-09-19T04:26:34.934Z,4
2018-09-19T04:27:15.733Z,4
2018-09-19T04:27:56.514Z,4
2018-09-19T04:28:37.379Z,4
2018-09-19T04:29:18.126Z,4
2018-09-19T04:29:58.959Z,4
2018-09-19T04:30:39.766Z,4
2018-09-19T04:31:20.534Z,4
2018-09-19T04:32:01.318Z,4
2018-09-19T04:32:42.159Z,4
2018-09-19T04:33:22.956Z,4
2018-09-19T04:34:03.698Z,4
2018-09-19T04:34:44.432Z,4
2018-09-19T04:35:25.272Z,4
2018-09-19T04:36:06.073Z,4
2018-09-19T04:36:46.827Z,4
2018-09-19T04:37:27.595Z,4
2018-09-19T04:38:08.374Z,4
2018-09-19T04:38:49.236Z,4
2018-09-19T04:39:30.052Z,4
2018-09-19T04:40:10.910Z,4
2018-09-19T04:40:51.705Z,4
2018-09-19T04:41:32.446Z,4
2018-09-19T04:42:13.229Z,4
2018-09-19T04:42:54.004Z,4
2018-09-19T04:43:34.816Z,4
2018-09-19T04:44:15.531Z,4
2018-09-19T04:44:56.409Z,4
2018-09-19T04:45:37.215Z,4
2018-09-19T04:46:17.955Z,4
2018-09-19T04:46:58.737Z,4
2018-09-19T04:47:39.471Z,4
2018-09-19T04:48:20.215Z,4
2018-09-19T04:49:00.975Z,4
2018-09-19T04:49:41.808Z,4
2018-09-19T04:50:22.604Z,4
2018-09-19T04:51:03.436Z,4
2018-09-19T04:51:44.161Z,4
2018-09-19T04:52:25.032Z,4
2018-09-19T04:53:05.945Z,4
2018-09-19T04:53:46.630Z,4
2018-09-19T04:54:27.408Z,4
2018-09-19T04:55:08.217Z,4
2018-09-19T04:55:49.053Z,4
2018-09-19T04:56:29.894Z,4
2018-09-19T04:57:10.720Z,4
2018-09-19T04:57:51.505Z,4
2018-09-19T04:58:32.240Z,4
2018-09-19T04:59:12.983Z,4
2018-09-19T04:59:53.774Z,4
2018-09-19T05:00:34.584Z,4
2018-09-19T05:01:15.300Z,4
2018-09-19T05:01:55.984Z,4
2018-09-19T05:02:36.801Z,4
2018-09-19T05:03:17.631Z,4
2018-09-19T05:03:58.434Z,4
2018-09-19T05:04:39.124Z,4
2018-09-19T05:05:19.903Z,4
2018-09-19T05:06:00.773Z,4
2018-09-19T05:06:41.553Z,4
2018-09-19T05:07:22.353Z,4
2018-09-19T05:08:03.057Z,4
2018-09-19T05:08:43.873Z,4
2018-09-19T05:09:24.671Z,4
2018-09-19T05:10:05.392Z,4
2018-09-19T05:10:46.150Z,4
2018-09-19T05:11:27.043Z,4
2018-09-19T05:12:07.842Z,4
2018-09-19T05:12:48.595Z,0
2018-09-19T05:13:29.353Z,0
2018-09-19T05:14:10.092Z,0
2018-09-19T05:14:50.842Z,0
2018-09-19T05:15:31.666Z,0
2018-09-19T05:16:12.519Z,0
2018-09-19T05:16:53.336Z,0
2018-09-19T05:17:34.072Z,0
2018-09-19T05:18:14.829Z,0
2018-09-19T05:18:55.642Z,0
2018-09-19T05:19:36.447Z,0
2018-09-19T05:20:17.219Z,0
2018-09-19T05:20:57.944Z,0
2018-09-19T05:21:38.692Z,0
2018-09-19T05:22:19.553Z,0
2018-09-19T05:23:00.369Z,0
2018-09-19T05:23:41.138Z,0
2018-09-19T05:24:21.861Z,0
2018-09-19T05:25:02.630Z,0
2018-09-19T05:25:43.316Z,0
2018-09-19T05:26:24.134Z,0
2018-09-19T05:27:04.859Z,0
2018-09-19T05:27:45.727Z,0
2018-09-19T05:28:26.530Z,0
2018-09-19T05:29:07.319Z,0
2018-09-19T05:29:48.191Z,4
2018-09-19T05:30:28.941Z,4
2018-09-19T05:31:09.707Z,4
2018-09-19T05:31:50.430Z,0
2018-09-19T05:32:31.286Z,0
2018-09-19T05:33:12.064Z,0
2018-09-19T05:33:52.876Z,4
2018-09-19T05:34:33.608Z,4
2018-09-19T05:35:14.345Z,4
2018-09-19T05:35:55.195Z,4
2018-09-19T05:36:36.831Z,4
2018-09-19T05:37:17.590Z,4
2018-09-19T05:37:58.297Z,4
2018-09-19T05:38:39.064Z,4
2018-09-19T05:39:19.878Z,4
2018-09-19T05:40:00.694Z,4
2018-09-19T05:40:41.459Z,8
2018-09-19T05:41:22.224Z,8
2018-09-19T05:42:03.038Z,4
2018-09-19T05:42:43.843Z,8
2018-09-19T05:43:24.613Z,8
2018-09-19T05:44:05.422Z,8
2018-09-19T05:44:46.274Z,8
2018-09-19T05:45:27.077Z,8
2018-09-19T05:46:07.794Z,8
2018-09-19T05:46:48.552Z,12
2018-09-19T05:47:29.255Z,12
2018-09-19T05:48:10.106Z,12
2018-09-19T05:48:50.920Z,12
2018-09-19T05:49:31.742Z,12
2018-09-19T05:50:12.559Z,16
2018-09-19T05:50:53.310Z,12
2018-09-19T05:51:34.167Z,16
2018-09-19T05:52:14.958Z,16
2018-09-19T05:52:55.752Z,16
2018-09-19T05:53:36.448Z,16
2018-09-19T05:54:17.192Z,16
2018-09-19T05:54:58.074Z,20
2018-09-19T05:55:38.869Z,16
2018-09-19T05:56:19.642Z,20
2018-09-19T05:57:00.376Z,20
2018-09-19T05:57:41.212Z,20
2018-09-19T05:58:22.021Z,24
2018-09-19T05:59:02.735Z,24
2018-09-19T05:59:43.444Z,24
2018-09-19T06:00:24.203Z,28
2018-09-19T06:01:05.014Z,24
2018-09-19T06:01:45.803Z,28
2018-09-19T06:02:26.571Z,28
2018-09-19T06:03:07.401Z,32
2018-09-19T06:03:48.252Z,32
2018-09-19T06:04:29.068Z,32
2018-09-19T06:05:09.895Z,36
2018-09-19T06:05:50.602Z,40
2018-09-19T06:06:31.325Z,44
2018-09-19T06:07:12.081Z,48
2018-09-19T06:07:52.872Z,48
2018-09-19T06:08:33.715Z,52
2018-09-19T06:09:14.526Z,56
2018-09-19T06:09:55.237Z,60
2018-09-19T06:10:36.102Z,68
2018-09-19T06:11:16.893Z,72
2018-09-19T06:11:57.658Z,80
2018-09-19T06:12:38.391Z,88
2018-09-19T06:13:19.178Z,96
2018-09-19T06:14:00.045Z,108
2018-09-19T06:14:40.825Z,120
2018-09-19T06:15:21.683Z,132
2018-09-19T06:16:02.614Z,132
2018-09-19T06:16:43.484Z,140
2018-09-19T06:17:24.378Z,144
2018-09-19T06:18:05.204Z,148
2018-09-19T06:18:46.093Z,152
2018-09-19T06:19:26.926Z,156
2018-09-19T06:20:07.799Z,164
2018-09-19T06:20:48.778Z,168
2018-09-19T06:21:29.475Z,172
2018-09-19T06:22:10.202Z,180
2018-09-19T06:22:51.093Z,184
2018-09-19T06:23:31.997Z,188
2018-09-19T06:24:12.774Z,196
2018-09-19T06:24:53.549Z,200
2018-09-19T06:25:34.345Z,208
2018-09-19T06:26:15.078Z,212
2018-09-19T06:26:55.975Z,216
2018-09-19T06:27:36.680Z,220
2018-09-19T06:28:17.440Z,228
2018-09-19T06:28:58.224Z,236
2018-09-19T06:29:39.011Z,240
2018-09-19T06:30:19.830Z,248
2018-09-19T06:31:00.576Z,252
2018-09-19T06:31:41.380Z,260
2018-09-19T06:32:22.100Z,264
2018-09-19T06:33:02.991Z,272
2018-09-19T06:33:43.670Z,276
2018-09-19T06:34:24.491Z,288
2018-09-19T06:35:05.263Z,332
2018-09-19T06:35:46.035Z,464
2018-09-19T06:36:26.835Z,724
2018-09-19T06:37:07.767Z,1244
2018-09-19T06:37:48.506Z,2404
2018-09-19T06:38:29.264Z,4100
2018-09-19T06:39:10.024Z,5704
2018-09-19T06:39:50.863Z,6116
2018-09-19T06:40:31.627Z,5980
2018-09-19T06:41:12.403Z,6056
2018-09-19T06:41:53.203Z,6152
2018-09-19T06:42:34.004Z,6368
2018-09-19T06:43:14.712Z,6688
2018-09-19T06:43:55.425Z,7012
2018-09-19T06:44:36.236Z,7460
2018-09-19T06:45:17.035Z,7684
2018-09-19T06:45:57.820Z,7348
2018-09-19T06:46:38.676Z,7224
2018-09-19T06:47:19.419Z,7508
2018-09-19T06:48:00.228Z,8272
2018-09-19T06:48:41.030Z,8456
2018-09-19T06:49:21.800Z,8652
2018-09-19T06:50:02.620Z,8948
2018-09-19T06:50:43.402Z,9116
2018-09-19T06:51:24.178Z,9348
2018-09-19T06:52:05.088Z,8940
2018-09-19T06:52:45.690Z,8564
2018-09-19T06:53:26.522Z,8416
2018-09-19T06:54:07.322Z,8684
2018-09-19T06:54:48.132Z,9028
2018-09-19T06:55:28.948Z,9272
2018-09-19T06:56:09.779Z,9376
2018-09-19T06:56:50.578Z,9396
2018-09-19T06:57:31.361Z,9128
2018-09-19T06:58:12.121Z,8888
2018-09-19T06:58:52.879Z,9040
2018-09-19T06:59:33.754Z,9056
2018-09-19T07:00:14.451Z,7808
2018-09-19T07:00:55.296Z,5616
2018-09-19T07:01:36.105Z,3696
2018-09-19T07:02:16.828Z,2060
2018-09-19T07:02:57.640Z,1420
2018-09-19T07:03:38.415Z,1360
2018-09-19T07:04:19.118Z,1304
2018-09-19T07:04:59.893Z,1264
2018-09-19T07:05:40.612Z,1228
2018-09-19T07:06:21.465Z,1188
2018-09-19T07:07:02.269Z,1148
2018-09-19T07:07:43.071Z,1108
2018-09-19T07:08:23.892Z,1068
2018-09-19T07:09:04.626Z,1028
2018-09-19T07:09:45.330Z,992
2018-09-19T07:10:26.141Z,960
2018-09-19T07:11:06.962Z,928
2018-09-19T07:11:47.745Z,896
2018-09-19T07:12:28.462Z,868
2018-09-19T07:13:09.257Z,840
2018-09-19T07:13:50.075Z,816
2018-09-19T07:14:30.879Z,792
2018-09-19T07:15:11.621Z,768
2018-09-19T07:15:52.329Z,748
2018-09-19T07:16:33.108Z,736
2018-09-19T07:17:13.903Z,720
2018-09-19T07:17:54.744Z,708
2018-09-19T07:18:35.543Z,696
2018-09-19T07:19:16.348Z,684
2018-09-19T07:19:57.072Z,672
2018-09-19T07:20:37.861Z,664
2018-09-19T07:21:18.651Z,656
2018-09-19T07:21:59.375Z,644
2018-09-19T07:22:40.151Z,636
2018-09-19T07:23:20.926Z,628
2018-09-19T07:24:01.741Z,616
2018-09-19T07:24:42.494Z,604
2018-09-19T07:25:23.269Z,592
2018-09-19T07:26:04.083Z,584
2018-09-19T07:26:44.949Z,576
2018-09-19T07:27:25.832Z,564
2018-09-19T07:28:06.582Z,556
2018-09-19T07:28:47.331Z,548
2018-09-19T07:29:28.123Z,540
2018-09-19T07:30:08.931Z,532
2018-09-19T07:30:49.642Z,524
2018-09-19T07:31:30.362Z,520
2018-09-19T07:32:11.113Z,508
2018-09-19T07:32:51.909Z,504
2018-09-19T07:33:32.724Z,496
2018-09-19T07:34:13.496Z,492
2018-09-19T07:34:54.297Z,484
2018-09-19T07:35:35.048Z,480
2018-09-19T07:36:15.768Z,480
2018-09-19T07:36:56.529Z,472
2018-09-19T07:37:37.361Z,468
2018-09-19T07:38:18.103Z,460
2018-09-19T07:38:58.874Z,456
2018-09-19T07:39:39.675Z,452
2018-09-19T07:40:20.540Z,448
2018-09-19T07:41:01.261Z,440
2018-09-19T07:41:41.970Z,436
2018-09-19T07:42:22.740Z,436
2018-09-19T07:43:03.528Z,432
2018-09-19T07:43:44.345Z,432
2018-09-19T07:44:25.139Z,424
2018-09-19T07:45:05.940Z,420
2018-09-19T07:45:46.671Z,420
2018-09-19T07:46:27.457Z,416
2018-09-19T07:47:08.291Z,412
2018-09-19T07:47:49.009Z,412
2018-09-19T07:48:29.779Z,408
2018-09-19T07:49:10.531Z,404
2018-09-19T07:49:51.301Z,396
2018-09-19T07:50:32.140Z,396
2018-09-19T07:51:12.967Z,392
2018-09-19T07:51:53.779Z,388
2018-09-19T07:52:34.558Z,384
2018-09-19T07:53:15.316Z,380
2018-09-19T07:53:56.120Z,380
2018-09-19T07:54:36.918Z,376
2018-09-19T07:55:17.686Z,372
2018-09-19T07:55:58.433Z,372
2018-09-19T07:56:39.197Z,368
2018-09-19T07:57:20.076Z,364
2018-09-19T07:58:00.888Z,364
2018-09-19T07:58:41.653Z,356
2018-09-19T07:59:22.421Z,356
2018-09-19T08:00:03.275Z,352
2018-09-19T08:00:44.205Z,352
2018-09-19T08:01:24.781Z,348
2018-09-19T08:02:05.463Z,344
2018-09-19T08:02:46.248Z,340
2018-09-19T08:03:27.081Z,336
2018-09-19T08:04:07.811Z,336
2018-09-19T08:04:48.535Z,336
2018-09-19T08:05:29.411Z,340
2018-09-19T08:06:10.249Z,336
2018-09-19T08:06:51.077Z,336
2018-09-19T08:07:31.821Z,332
2018-09-19T08:08:12.533Z,328
2018-09-19T08:08:53.283Z,328
2018-09-19T08:09:34.045Z,324
2018-09-19T08:10:14.878Z,328
2018-09-19T08:10:55.660Z,324
2018-09-19T08:11:36.423Z,320
2018-09-19T08:12:17.166Z,320
2018-09-19T08:12:58.002Z,320
2018-09-19T08:13:38.884Z,320
2018-09-19T08:14:19.693Z,316
2018-09-19T08:15:00.424Z,312
2018-09-19T08:15:41.183Z,308
2018-09-19T08:16:22.063Z,304
2018-09-19T08:17:02.909Z,304
2018-09-19T08:17:43.557Z,304
2018-09-19T08:18:24.367Z,300
2018-09-19T08:19:05.171Z,296
2018-09-19T08:19:45.988Z,292
2018-09-19T08:20:26.764Z,292
2018-09-19T08:21:07.523Z,296
2018-09-19T08:21:48.340Z,296
2018-09-19T08:22:29.152Z,296
2018-09-19T08:23:09.841Z,296
2018-09-19T08:23:50.591Z,296
2018-09-19T08:24:31.411Z,296
2018-09-19T08:25:12.277Z,296
2018-09-19T08:25:53.158Z,292
2018-09-19T08:26:33.907Z,296
2018-09-19T08:27:14.642Z,296
2018-09-19T08:27:55.359Z,296
2018-09-19T08:28:36.141Z,292
2018-09-19T08:29:16.965Z,300
2018-09-19T08:29:57.709Z,292
2018-09-19T08:30:38.447Z,288
2018-09-19T08:31:19.356Z,288
2018-09-19T08:32:00.143Z,284
2018-09-19T08:32:40.958Z,284
2018-09-19T08:33:21.691Z,280
2018-09-19T08:34:02.455Z,276
2018-09-19T08:34:43.280Z,276
2018-09-19T08:35:24.048Z,280
2018-09-19T08:36:04.819Z,284
2018-09-19T08:36:45.570Z,288
2018-09-19T08:37:26.343Z,292
2018-09-19T08:38:07.150Z,300
2018-09-19T08:38:47.910Z,300
2018-09-19T08:39:28.665Z,308
2018-09-19T08:40:09.473Z,320
2018-09-19T08:40:50.228Z,312
2018-09-19T08:41:31.047Z,304
2018-09-19T08:42:11.846Z,296
2018-09-19T08:42:52.572Z,296
2018-09-19T08:43:33.319Z,280
2018-09-19T08:44:14.130Z,284
2018-09-19T08:44:54.988Z,336
2018-09-19T08:45:35.846Z,388
2018-09-19T08:46:16.593Z,396
2018-09-19T08:46:57.325Z,388
2018-09-19T08:47:38.199Z,376
2018-09-19T08:48:18.944Z,336
2018-09-19T08:48:59.751Z,312
2018-09-19T08:49:40.484Z,312
2018-09-19T08:50:21.250Z,316
2018-09-19T08:51:02.129Z,320
2018-09-19T08:51:42.929Z,316
2018-09-19T08:52:23.730Z,308
2018-09-19T08:53:04.454Z,304
2018-09-19T08:53:45.179Z,300
2018-09-19T08:54:25.944Z,292
2018-09-19T08:55:06.740Z,288
2018-09-19T08:55:47.572Z,284
2018-09-19T08:56:28.331Z,280
2018-09-19T08:57:09.149Z,284
2018-09-19T08:57:49.848Z,280
2018-09-19T08:58:30.712Z,280
2018-09-19T08:59:11.471Z,280
2018-09-19T08:59:52.223Z,280
2018-09-19T09:00:32.935Z,280
2018-09-19T09:01:13.683Z,284
2018-09-19T09:01:54.500Z,284
2018-09-19T09:02:35.297Z,284
2018-09-19T09:03:16.129Z,280
2018-09-19T09:03:56.866Z,280
2018-09-19T09:04:37.626Z,280
2018-09-19T09:05:18.487Z,280
2018-09-19T09:05:59.139Z,280
2018-09-19T09:06:39.854Z,276
2018-09-19T09:07:20.623Z,276
2018-09-19T09:08:01.428Z,276
2018-09-19T09:08:42.318Z,276
2018-09-19T09:09:23.040Z,276
2018-09-19T09:10:03.804Z,280
2018-09-19T09:10:44.620Z,276
2018-09-19T09:11:25.384Z,276
2018-09-19T09:12:06.229Z,276
2018-09-19T09:12:46.972Z,280
2018-09-19T09:13:27.702Z,280
2018-09-19T09:14:08.524Z,276
2018-09-19T09:14:49.276Z,280
2018-09-19T09:15:30.061Z,276
2018-09-19T09:16:10.809Z,276
2018-09-19T09:16:51.638Z,276
2018-09-19T09:17:32.496Z,276
2018-09-19T09:18:13.316Z,276
2018-09-19T09:18:54.090Z,276
2018-09-19T09:19:34.798Z,276
2018-09-19T09:20:15.593Z,276
2018-09-19T09:20:56.376Z,276
2018-09-19T09:21:37.170Z,276
2018-09-19T09:22:17.878Z,276
2018-09-19T09:22:58.669Z,276
2018-09-19T09:23:39.442Z,280
2018-09-19T09:24:20.205Z,276
2018-09-19T09:25:01.021Z,276
2018-09-19T09:25:41.790Z,280
2018-09-19T09:26:22.547Z,280
2018-09-19T09:27:03.506Z,284
2018-09-19T09:27:44.200Z,284
2018-09-19T09:28:24.924Z,284
2018-09-19T09:29:05.683Z,284
2018-09-19T09:29:46.455Z,280
2018-09-19T09:30:27.260Z,284
2018-09-19T09:31:08.018Z,284
2018-09-19T09:31:48.725Z,284
2018-09-19T09:34:09.566Z,288
2018-09-19T09:34:50.438Z,288
2018-09-19T09:35:31.214Z,288
2018-09-19T09:36:12.012Z,284
2018-09-19T09:36:52.925Z,296
2018-09-19T09:37:33.653Z,288
2018-09-19T09:38:14.376Z,288
2018-09-19T09:38:55.122Z,292
2018-09-19T09:39:35.876Z,292
2018-09-19T09:40:16.818Z,292
2018-09-19T09:40:57.577Z,296
2018-09-19T09:41:38.352Z,296
2018-09-19T09:42:19.124Z,296
2018-09-19T09:42:59.970Z,292
2018-09-19T09:43:40.784Z,296
2018-09-19T09:44:21.532Z,292
2018-09-19T09:45:02.288Z,296
2018-09-19T09:45:43.087Z,296
2018-09-19T09:46:23.889Z,296